sensor_id;sensor_type;location;lat;lon;timestamp;temperature;humidity
13742;DHT22;8461;52.356;10.704;2022-12-18T00:00:47;-7.70;99.90
13742;DHT22;8461;52.356;10.704;2022-12-18T00:03:14;-7.60;99.90
13742;DHT22;8461;52.356;10.704;2022-12-18T00:05:50;-7.60;99.90
13742;DHT22;8461;52.356;10.704;2022-12-18T00:08:17;-7.50;99.90
13742;DHT22;8461;52.356;10.704;2022-12-18T00:10:43;-7.60;99.90
13742;DHT22;8461;52.356;10.704;2022-12-18T00:13:08;-7.60;99.90
13742;DHT22;8461;52.356;10.704;2022-12-18T00:15:35;-7.60;99.90
13742;DHT22;8461;52.356;10.704;2022-12-18T00:18:00;-7.60;99.90
13742;DHT22;8461;52.356;10.704;2022-12-18T00:20:26;-7.70;99.90
13742;DHT22;8461;52.356;10.704;2022-12-18T00:22:52;-8.00;99.90
13742;DHT22;8461;52.356;10.704;2022-12-18T00:25:18;-8.10;99.90
13742;DHT22;8461;52.356;10.704;2022-12-18T00:27:44;-8.10;99.90
13742;DHT22;8461;52.356;10.704;2022-12-18T00:30:10;-8.10;99.90
13742;DHT22;8461;52.356;10.704;2022-12-18T00:32:35;-8.10;99.90
13742;DHT22;8461;52.356;10.704;2022-12-18T00:35:01;-8.40;99.90
13742;DHT22;8461;52.356;10.704;2022-12-18T00:37:27;-8.50;99.90
13742;DHT22;8461;52.356;10.704;2022-12-18T00:39:52;-8.30;99.90
13742;DHT22;8461;52.356;10.704;2022-12-18T00:42:18;-8.10;99.90
13742;DHT22;8461;52.356;10.704;2022-12-18T00:45:02;-7.90;99.90
13742;DHT22;8461;52.356;10.704;2022-12-18T00:47:28;-7.80;99.90
13742;DHT22;8461;52.356;10.704;2022-12-18T00:49:53;-7.80;99.90
13742;DHT22;8461;52.356;10.704;2022-12-18T00:52:19;-7.70;99.90
13742;DHT22;8461;52.356;10.704;2022-12-18T00:54:44;-7.90;99.90
13742;DHT22;8461;52.356;10.704;2022-12-18T00:57:10;-8.20;99.90
13742;DHT22;8461;52.356;10.704;2022-12-18T00:59:35;-8.60;99.90
13742;DHT22;8461;52.356;10.704;2022-12-18T01:02:01;-8.80;99.90
13742;DHT22;8461;52.356;10.704;2022-12-18T01:04:27;-8.90;99.90
13742;DHT22;8461;52.356;10.704;2022-12-18T01:06:52;-9.00;99.90
13742;DHT22;8461;52.356;10.704;2022-12-18T01:09:18;-9.10;99.90
13742;DHT22;8461;52.356;10.704;2022-12-18T01:11:43;-9.10;99.90
13742;DHT22;8461;52.356;10.704;2022-12-18T01:14:09;-9.10;99.90
13742;DHT22;8461;52.356;10.704;2022-12-18T01:16:35;-9.10;99.90
13742;DHT22;8461;52.356;10.704;2022-12-18T01:19:00;-9.00;99.90
13742;DHT22;8461;52.356;10.704;2022-12-18T01:21:26;-8.80;99.90
13742;DHT22;8461;52.356;10.704;2022-12-18T01:23:54;-8.80;99.90
13742;DHT22;8461;52.356;10.704;2022-12-18T01:26:20;-8.70;99.90
13742;DHT22;8461;52.356;10.704;2022-12-18T01:28:45;-8.60;99.90
13742;DHT22;8461;52.356;10.704;2022-12-18T01:31:23;-8.60;99.90
13742;DHT22;8461;52.356;10.704;2022-12-18T01:33:50;-8.60;99.90
13742;DHT22;8461;52.356;10.704;2022-12-18T01:36:27;-8.60;99.90
13742;DHT22;8461;52.356;10.704;2022-12-18T01:38:54;-8.70;99.90
13742;DHT22;8461;52.356;10.704;2022-12-18T01:41:23;-8.90;99.90
13742;DHT22;8461;52.356;10.704;2022-12-18T01:43:57;-9.10;99.90
13742;DHT22;8461;52.356;10.704;2022-12-18T01:46:24;-9.30;99.90
13742;DHT22;8461;52.356;10.704;2022-12-18T01:48:58;-9.40;99.90
13742;DHT22;8461;52.356;10.704;2022-12-18T01:51:25;-9.60;99.90
13742;DHT22;8461;52.356;10.704;2022-12-18T01:53:52;-9.60;99.90
13742;DHT22;8461;52.356;10.704;2022-12-18T01:56:19;-9.50;99.90
13742;DHT22;8461;52.356;10.704;2022-12-18T01:59:02;-9.50;99.90
13742;DHT22;8461;52.356;10.704;2022-12-18T02:01:29;-9.50;99.90
13742;DHT22;8461;52.356;10.704;2022-12-18T02:03:55;-9.60;99.90
13742;DHT22;8461;52.356;10.704;2022-12-18T02:06:27;-9.60;99.90
13742;DHT22;8461;52.356;10.704;2022-12-18T02:09:06;-9.50;99.90
13742;DHT22;8461;52.356;10.704;2022-12-18T02:17:59;-9.50;99.90
13742;DHT22;8461;52.356;10.704;2022-12-18T02:20:28;-9.50;99.90
13742;DHT22;8461;52.356;10.704;2022-12-18T02:23:18;-9.60;99.90
13742;DHT22;8461;52.356;10.704;2022-12-18T02:28:43;-9.50;99.90
13742;DHT22;8461;52.356;10.704;2022-12-18T02:31:14;-9.50;99.90
13742;DHT22;8461;52.356;10.704;2022-12-18T02:33:43;-9.40;99.90
13742;DHT22;8461;52.356;10.704;2022-12-18T02:36:11;-9.50;99.90
13742;DHT22;8461;52.356;10.704;2022-12-18T02:38:38;-9.70;99.90
13742;DHT22;8461;52.356;10.704;2022-12-18T02:41:05;-9.80;99.90
13742;DHT22;8461;52.356;10.704;2022-12-18T02:43:31;-9.80;99.90
13742;DHT22;8461;52.356;10.704;2022-12-18T02:45:59;-9.80;99.90
13742;DHT22;8461;52.356;10.704;2022-12-18T02:48:32;-9.70;99.90
13742;DHT22;8461;52.356;10.704;2022-12-18T02:51:23;-9.70;99.90
13742;DHT22;8461;52.356;10.704;2022-12-18T02:53:58;-9.70;99.90
13742;DHT22;8461;52.356;10.704;2022-12-18T02:56:44;-9.80;99.90
13742;DHT22;8461;52.356;10.704;2022-12-18T02:59:15;-9.80;99.90
13742;DHT22;8461;52.356;10.704;2022-12-18T03:04:39;-9.50;99.90
13742;DHT22;8461;52.356;10.704;2022-12-18T03:07:16;-9.30;99.90
13742;DHT22;8461;52.356;10.704;2022-12-18T03:09:47;-9.10;99.90
13742;DHT22;8461;52.356;10.704;2022-12-18T03:12:26;-9.10;99.90
13742;DHT22;8461;52.356;10.704;2022-12-18T03:15:09;-9.50;99.90
13742;DHT22;8461;52.356;10.704;2022-12-18T03:17:36;-10.00;99.90
13742;DHT22;8461;52.356;10.704;2022-12-18T03:20:12;-10.20;99.90
13742;DHT22;8461;52.356;10.704;2022-12-18T03:22:40;-10.20;99.90
13742;DHT22;8461;52.356;10.704;2022-12-18T03:25:10;-10.20;99.90
13742;DHT22;8461;52.356;10.704;2022-12-18T03:27:38;-10.20;99.90
13742;DHT22;8461;52.356;10.704;2022-12-18T03:30:08;-10.10;99.90
13742;DHT22;8461;52.356;10.704;2022-12-18T03:32:51;-10.10;99.90
13742;DHT22;8461;52.356;10.704;2022-12-18T03:35:22;-10.10;99.90
13742;DHT22;8461;52.356;10.704;2022-12-18T03:37:48;-10.00;99.90
13742;DHT22;8461;52.356;10.704;2022-12-18T03:40:14;-10.10;99.90
13742;DHT22;8461;52.356;10.704;2022-12-18T03:42:56;-10.10;99.90
13742;DHT22;8461;52.356;10.704;2022-12-18T03:45:33;-10.20;99.90
13742;DHT22;8461;52.356;10.704;2022-12-18T03:48:04;-10.00;99.90
13742;DHT22;8461;52.356;10.704;2022-12-18T03:50:45;-9.90;99.90
13742;DHT22;8461;52.356;10.704;2022-12-18T03:53:32;-9.70;99.90
13742;DHT22;8461;52.356;10.704;2022-12-18T03:56:00;-9.80;99.90
13742;DHT22;8461;52.356;10.704;2022-12-18T03:58:28;-10.00;99.90
13742;DHT22;8461;52.356;10.704;2022-12-18T04:01:00;-10.20;99.90
13742;DHT22;8461;52.356;10.704;2022-12-18T04:03:28;-10.30;99.90
13742;DHT22;8461;52.356;10.704;2022-12-18T04:05:55;-10.40;99.90
13742;DHT22;8461;52.356;10.704;2022-12-18T04:08:22;-10.40;99.90
13742;DHT22;8461;52.356;10.704;2022-12-18T04:10:48;-10.30;99.90
13742;DHT22;8461;52.356;10.704;2022-12-18T04:13:22;-10.30;99.90
13742;DHT22;8461;52.356;10.704;2022-12-18T04:15:48;-10.20;99.90
13742;DHT22;8461;52.356;10.704;2022-12-18T04:18:13;-10.10;99.90
13742;DHT22;8461;52.356;10.704;2022-12-18T04:20:39;-10.00;99.90
13742;DHT22;8461;52.356;10.704;2022-12-18T04:23:04;-9.90;99.90
13742;DHT22;8461;52.356;10.704;2022-12-18T04:25:30;-9.70;99.90
13742;DHT22;8461;52.356;10.704;2022-12-18T04:27:55;-9.80;99.90
13742;DHT22;8461;52.356;10.704;2022-12-18T04:30:21;-9.80;99.90
13742;DHT22;8461;52.356;10.704;2022-12-18T04:32:46;-9.80;99.90
13742;DHT22;8461;52.356;10.704;2022-12-18T04:35:12;-9.60;99.90
13742;DHT22;8461;52.356;10.704;2022-12-18T04:37:37;-9.80;99.90
13742;DHT22;8461;52.356;10.704;2022-12-18T04:40:04;-9.70;99.90
13742;DHT22;8461;52.356;10.704;2022-12-18T04:42:30;-9.60;99.90
13742;DHT22;8461;52.356;10.704;2022-12-18T04:44:56;-9.60;99.90
13742;DHT22;8461;52.356;10.704;2022-12-18T04:47:21;-9.50;99.90
13742;DHT22;8461;52.356;10.704;2022-12-18T04:49:47;-9.20;99.90
13742;DHT22;8461;52.356;10.704;2022-12-18T04:52:12;-8.90;99.90
13742;DHT22;8461;52.356;10.704;2022-12-18T04:54:38;-8.80;99.90
13742;DHT22;8461;52.356;10.704;2022-12-18T04:57:03;-8.70;99.90
13742;DHT22;8461;52.356;10.704;2022-12-18T04:59:29;-8.50;99.90
13742;DHT22;8461;52.356;10.704;2022-12-18T05:01:54;-8.40;99.90
13742;DHT22;8461;52.356;10.704;2022-12-18T05:04:20;-8.40;99.90
13742;DHT22;8461;52.356;10.704;2022-12-18T05:06:45;-8.40;99.90
13742;DHT22;8461;52.356;10.704;2022-12-18T05:09:11;-8.50;99.90
13742;DHT22;8461;52.356;10.704;2022-12-18T05:11:36;-8.90;99.90
13742;DHT22;8461;52.356;10.704;2022-12-18T05:14:02;-9.30;99.90
13742;DHT22;8461;52.356;10.704;2022-12-18T05:16:28;-9.30;99.90
13742;DHT22;8461;52.356;10.704;2022-12-18T05:18:53;-9.00;99.90
13742;DHT22;8461;52.356;10.704;2022-12-18T05:21:19;-8.70;99.90
13742;DHT22;8461;52.356;10.704;2022-12-18T05:23:44;-8.50;99.90
13742;DHT22;8461;52.356;10.704;2022-12-18T05:26:15;-8.70;99.90
13742;DHT22;8461;52.356;10.704;2022-12-18T05:28:40;-9.00;99.90
13742;DHT22;8461;52.356;10.704;2022-12-18T05:31:06;-8.90;99.90
13742;DHT22;8461;52.356;10.704;2022-12-18T05:33:33;-8.60;99.90
13742;DHT22;8461;52.356;10.704;2022-12-18T05:36:01;-8.40;99.90
13742;DHT22;8461;52.356;10.704;2022-12-18T05:38:27;-8.30;99.90
13742;DHT22;8461;52.356;10.704;2022-12-18T05:40:54;-8.20;99.90
13742;DHT22;8461;52.356;10.704;2022-12-18T05:43:20;-8.30;99.90
13742;DHT22;8461;52.356;10.704;2022-12-18T05:45:49;-8.80;99.90
13742;DHT22;8461;52.356;10.704;2022-12-18T05:48:16;-9.10;99.90
13742;DHT22;8461;52.356;10.704;2022-12-18T05:50:43;-9.20;99.90
13742;DHT22;8461;52.356;10.704;2022-12-18T05:53:11;-9.20;99.90
13742;DHT22;8461;52.356;10.704;2022-12-18T05:55:38;-8.90;99.90
13742;DHT22;8461;52.356;10.704;2022-12-18T05:58:05;-8.90;99.90
13742;DHT22;8461;52.356;10.704;2022-12-18T06:00:32;-8.80;99.90
13742;DHT22;8461;52.356;10.704;2022-12-18T06:03:00;-8.60;99.90
13742;DHT22;8461;52.356;10.704;2022-12-18T06:05:25;-8.50;99.90
13742;DHT22;8461;52.356;10.704;2022-12-18T06:07:51;-8.60;99.90
13742;DHT22;8461;52.356;10.704;2022-12-18T06:10:17;-8.70;99.90
13742;DHT22;8461;52.356;10.704;2022-12-18T06:12:42;-8.70;99.90
13742;DHT22;8461;52.356;10.704;2022-12-18T06:15:08;-8.60;99.90
13742;DHT22;8461;52.356;10.704;2022-12-18T06:17:34;-8.70;99.90
13742;DHT22;8461;52.356;10.704;2022-12-18T06:20:00;-9.10;99.90
13742;DHT22;8461;52.356;10.704;2022-12-18T06:22:26;-9.30;99.90
13742;DHT22;8461;52.356;10.704;2022-12-18T06:24:52;-9.20;99.90
13742;DHT22;8461;52.356;10.704;2022-12-18T06:27:18;-9.30;99.90
13742;DHT22;8461;52.356;10.704;2022-12-18T06:29:44;-9.40;99.90
13742;DHT22;8461;52.356;10.704;2022-12-18T06:32:09;-9.70;99.90
13742;DHT22;8461;52.356;10.704;2022-12-18T06:34:37;-9.90;99.90
13742;DHT22;8461;52.356;10.704;2022-12-18T06:37:02;-10.10;99.90
13742;DHT22;8461;52.356;10.704;2022-12-18T06:39:28;-10.20;99.90
13742;DHT22;8461;52.356;10.704;2022-12-18T06:41:54;-10.10;99.90
13742;DHT22;8461;52.356;10.704;2022-12-18T06:44:19;-10.10;99.90
13742;DHT22;8461;52.356;10.704;2022-12-18T06:46:45;-10.20;99.90
13742;DHT22;8461;52.356;10.704;2022-12-18T06:49:10;-10.20;99.90
13742;DHT22;8461;52.356;10.704;2022-12-18T06:51:36;-10.30;99.90
13742;DHT22;8461;52.356;10.704;2022-12-18T06:54:02;-10.30;99.90
13742;DHT22;8461;52.356;10.704;2022-12-18T06:56:27;-10.20;99.90
13742;DHT22;8461;52.356;10.704;2022-12-18T06:58:53;-10.20;99.90
13742;DHT22;8461;52.356;10.704;2022-12-18T07:01:19;-10.10;99.90
13742;DHT22;8461;52.356;10.704;2022-12-18T07:03:44;-10.10;99.90
13742;DHT22;8461;52.356;10.704;2022-12-18T07:06:18;-10.00;99.90
13742;DHT22;8461;52.356;10.704;2022-12-18T07:08:45;-10.00;99.90
13742;DHT22;8461;52.356;10.704;2022-12-18T07:11:10;-10.00;99.90
13742;DHT22;8461;52.356;10.704;2022-12-18T07:13:36;-10.00;99.90
13742;DHT22;8461;52.356;10.704;2022-12-18T07:16:16;-9.90;99.90
13742;DHT22;8461;52.356;10.704;2022-12-18T07:18:42;-9.90;99.90
13742;DHT22;8461;52.356;10.704;2022-12-18T07:21:16;-9.80;99.90
13742;DHT22;8461;52.356;10.704;2022-12-18T07:23:42;-9.70;99.90
13742;DHT22;8461;52.356;10.704;2022-12-18T07:26:11;-9.70;99.90
13742;DHT22;8461;52.356;10.704;2022-12-18T07:28:37;-9.80;99.90
13742;DHT22;8461;52.356;10.704;2022-12-18T07:31:11;-9.80;99.90
13742;DHT22;8461;52.356;10.704;2022-12-18T07:33:37;-9.60;99.90
13742;DHT22;8461;52.356;10.704;2022-12-18T07:36:04;-9.40;99.90
13742;DHT22;8461;52.356;10.704;2022-12-18T07:38:32;-9.30;99.90
13742;DHT22;8461;52.356;10.704;2022-12-18T07:41:02;-9.20;99.90
13742;DHT22;8461;52.356;10.704;2022-12-18T07:43:28;-9.30;99.90
13742;DHT22;8461;52.356;10.704;2022-12-18T07:45:53;-9.60;99.90
13742;DHT22;8461;52.356;10.704;2022-12-18T07:48:19;-9.80;99.90
13742;DHT22;8461;52.356;10.704;2022-12-18T07:50:44;-9.80;99.90
13742;DHT22;8461;52.356;10.704;2022-12-18T07:53:10;-9.70;99.90
13742;DHT22;8461;52.356;10.704;2022-12-18T07:55:36;-9.70;99.90
13742;DHT22;8461;52.356;10.704;2022-12-18T07:58:04;-9.70;99.90
13742;DHT22;8461;52.356;10.704;2022-12-18T08:00:30;-9.60;99.90
13742;DHT22;8461;52.356;10.704;2022-12-18T08:02:56;-9.60;99.90
13742;DHT22;8461;52.356;10.704;2022-12-18T08:05:22;-9.80;99.90
13742;DHT22;8461;52.356;10.704;2022-12-18T08:07:47;-9.90;99.90
13742;DHT22;8461;52.356;10.704;2022-12-18T08:10:13;-9.80;99.90
13742;DHT22;8461;52.356;10.704;2022-12-18T08:12:39;-9.70;99.90
13742;DHT22;8461;52.356;10.704;2022-12-18T08:15:05;-9.60;99.90
13742;DHT22;8461;52.356;10.704;2022-12-18T08:17:31;-9.40;99.90
13742;DHT22;8461;52.356;10.704;2022-12-18T08:19:56;-9.60;99.90
13742;DHT22;8461;52.356;10.704;2022-12-18T08:22:22;-9.50;99.90
13742;DHT22;8461;52.356;10.704;2022-12-18T08:24:47;-9.30;99.90
13742;DHT22;8461;52.356;10.704;2022-12-18T08:27:13;-9.00;99.90
13742;DHT22;8461;52.356;10.704;2022-12-18T08:29:39;-8.60;99.90
13742;DHT22;8461;52.356;10.704;2022-12-18T08:32:04;-8.60;99.90
13742;DHT22;8461;52.356;10.704;2022-12-18T08:34:30;-8.50;99.90
13742;DHT22;8461;52.356;10.704;2022-12-18T08:36:55;-8.60;99.90
13742;DHT22;8461;52.356;10.704;2022-12-18T08:39:21;-8.60;99.90
13742;DHT22;8461;52.356;10.704;2022-12-18T08:41:46;-8.70;99.90
13742;DHT22;8461;52.356;10.704;2022-12-18T08:44:32;-8.80;99.90
13742;DHT22;8461;52.356;10.704;2022-12-18T08:47:07;-8.90;99.90
13742;DHT22;8461;52.356;10.704;2022-12-18T08:49:33;-9.00;99.90
13742;DHT22;8461;52.356;10.704;2022-12-18T08:52:00;-8.90;99.90
13742;DHT22;8461;52.356;10.704;2022-12-18T08:54:27;-8.70;99.90
13742;DHT22;8461;52.356;10.704;2022-12-18T08:56:52;-8.40;99.90
13742;DHT22;8461;52.356;10.704;2022-12-18T08:59:18;-8.10;99.90
13742;DHT22;8461;52.356;10.704;2022-12-18T09:01:45;-7.90;99.90
13742;DHT22;8461;52.356;10.704;2022-12-18T09:04:12;-7.50;99.90
13742;DHT22;8461;52.356;10.704;2022-12-18T09:06:38;-7.10;99.90
13742;DHT22;8461;52.356;10.704;2022-12-18T09:09:04;-6.90;99.90
13742;DHT22;8461;52.356;10.704;2022-12-18T09:11:31;-6.40;99.90
13742;DHT22;8461;52.356;10.704;2022-12-18T09:13:57;-6.10;99.90
13742;DHT22;8461;52.356;10.704;2022-12-18T09:16:25;-6.00;99.90
13742;DHT22;8461;52.356;10.704;2022-12-18T09:18:50;-5.90;99.90
13742;DHT22;8461;52.356;10.704;2022-12-18T09:21:20;-5.90;99.90
13742;DHT22;8461;52.356;10.704;2022-12-18T09:23:50;-5.80;99.90
13742;DHT22;8461;52.356;10.704;2022-12-18T09:26:16;-5.80;99.90
13742;DHT22;8461;52.356;10.704;2022-12-18T09:28:43;-5.70;99.90
13742;DHT22;8461;52.356;10.704;2022-12-18T09:31:11;-5.60;99.90
13742;DHT22;8461;52.356;10.704;2022-12-18T09:33:40;-5.50;99.90
13742;DHT22;8461;52.356;10.704;2022-12-18T09:36:08;-5.50;99.90
13742;DHT22;8461;52.356;10.704;2022-12-18T09:38:34;-5.60;99.90
13742;DHT22;8461;52.356;10.704;2022-12-18T09:44:52;-5.60;99.90
13742;DHT22;8461;52.356;10.704;2022-12-18T09:49:46;-5.60;99.90
13742;DHT22;8461;52.356;10.704;2022-12-18T09:53:04;-5.50;99.90
13742;DHT22;8461;52.356;10.704;2022-12-18T09:57:57;-5.30;99.90
13742;DHT22;8461;52.356;10.704;2022-12-18T10:00:26;-5.30;99.90
13742;DHT22;8461;52.356;10.704;2022-12-18T10:02:59;-5.20;99.90
13742;DHT22;8461;52.356;10.704;2022-12-18T10:08:17;-5.10;99.90
13742;DHT22;8461;52.356;10.704;2022-12-18T10:10:51;-5.00;99.90
13742;DHT22;8461;52.356;10.704;2022-12-18T10:13:39;-4.80;99.90
13742;DHT22;8461;52.356;10.704;2022-12-18T10:16:22;-4.30;99.90
13742;DHT22;8461;52.356;10.704;2022-12-18T10:21:40;-4.00;99.90
13742;DHT22;8461;52.356;10.704;2022-12-18T10:24:34;-3.80;99.90
13742;DHT22;8461;52.356;10.704;2022-12-18T10:27:15;-3.80;99.90
13742;DHT22;8461;52.356;10.704;2022-12-18T10:29:45;-3.60;99.90
13742;DHT22;8461;52.356;10.704;2022-12-18T10:32:17;-3.60;99.90
13742;DHT22;8461;52.356;10.704;2022-12-18T10:34:51;-3.80;99.90
13742;DHT22;8461;52.356;10.704;2022-12-18T10:37:19;-3.90;99.90
13742;DHT22;8461;52.356;10.704;2022-12-18T10:39:46;-4.00;99.90
13742;DHT22;8461;52.356;10.704;2022-12-18T10:42:19;-3.90;99.90
13742;DHT22;8461;52.356;10.704;2022-12-18T10:44:45;-3.90;99.90
13742;DHT22;8461;52.356;10.704;2022-12-18T10:47:15;-3.90;99.90
13742;DHT22;8461;52.356;10.704;2022-12-18T10:49:49;-3.80;99.90
13742;DHT22;8461;52.356;10.704;2022-12-18T10:52:16;-3.70;99.90
13742;DHT22;8461;52.356;10.704;2022-12-18T10:54:48;-3.40;99.90
13742;DHT22;8461;52.356;10.704;2022-12-18T10:59:58;-3.30;99.90
13742;DHT22;8461;52.356;10.704;2022-12-18T11:02:34;-3.30;99.90
13742;DHT22;8461;52.356;10.704;2022-12-18T11:05:00;-3.20;99.90
13742;DHT22;8461;52.356;10.704;2022-12-18T11:07:48;-3.10;99.90
13742;DHT22;8461;52.356;10.704;2022-12-18T11:10:19;-3.10;99.90
13742;DHT22;8461;52.356;10.704;2022-12-18T11:12:45;-3.00;99.90
13742;DHT22;8461;52.356;10.704;2022-12-18T11:15:29;-2.90;99.90
13742;DHT22;8461;52.356;10.704;2022-12-18T11:17:55;-2.70;99.90
13742;DHT22;8461;52.356;10.704;2022-12-18T11:20:33;-2.70;99.90
13742;DHT22;8461;52.356;10.704;2022-12-18T11:23:03;-2.60;99.90
13742;DHT22;8461;52.356;10.704;2022-12-18T11:25:30;-2.50;99.90
13742;DHT22;8461;52.356;10.704;2022-12-18T11:27:59;-2.50;99.90
13742;DHT22;8461;52.356;10.704;2022-12-18T11:30:35;-2.40;99.90
13742;DHT22;8461;52.356;10.704;2022-12-18T11:33:21;-2.50;99.90
13742;DHT22;8461;52.356;10.704;2022-12-18T11:35:53;-2.40;99.90
13742;DHT22;8461;52.356;10.704;2022-12-18T11:38:40;-2.50;99.90
13742;DHT22;8461;52.356;10.704;2022-12-18T11:43:56;-2.50;99.90
13742;DHT22;8461;52.356;10.704;2022-12-18T11:46:32;-2.40;99.90
13742;DHT22;8461;52.356;10.704;2022-12-18T11:49:03;-2.40;99.90
13742;DHT22;8461;52.356;10.704;2022-12-18T11:51:44;-2.40;99.90
13742;DHT22;8461;52.356;10.704;2022-12-18T11:54:14;-2.40;99.90
13742;DHT22;8461;52.356;10.704;2022-12-18T11:56:48;-2.40;99.90
13742;DHT22;8461;52.356;10.704;2022-12-18T11:59:30;-2.40;99.90
13742;DHT22;8461;52.356;10.704;2022-12-18T12:02:22;-2.20;99.90
13742;DHT22;8461;52.356;10.704;2022-12-18T12:05:01;-2.20;99.90
13742;DHT22;8461;52.356;10.704;2022-12-18T12:07:42;-2.20;99.90
13742;DHT22;8461;52.356;10.704;2022-12-18T12:18:36;-2.00;99.90
13742;DHT22;8461;52.356;10.704;2022-12-18T12:21:09;-1.90;99.90
13742;DHT22;8461;52.356;10.704;2022-12-18T12:26:17;-1.80;99.90
13742;DHT22;8461;52.356;10.704;2022-12-18T12:31:58;-1.70;99.90
13742;DHT22;8461;52.356;10.704;2022-12-18T12:40:18;-1.50;99.90
13742;DHT22;8461;52.356;10.704;2022-12-18T12:42:53;-1.50;99.90
13742;DHT22;8461;52.356;10.704;2022-12-18T12:46:00;-1.50;99.90
13742;DHT22;8461;52.356;10.704;2022-12-18T12:48:31;-1.40;99.90
13742;DHT22;8461;52.356;10.704;2022-12-18T12:51:01;-1.30;99.90
13742;DHT22;8461;52.356;10.704;2022-12-18T12:53:35;-1.30;99.90
13742;DHT22;8461;52.356;10.704;2022-12-18T12:56:03;-1.20;99.90
13742;DHT22;8461;52.356;10.704;2022-12-18T13:01:28;-1.20;99.90
13742;DHT22;8461;52.356;10.704;2022-12-18T13:03:56;-1.20;99.90
13742;DHT22;8461;52.356;10.704;2022-12-18T13:06:57;-1.20;99.90
13742;DHT22;8461;52.356;10.704;2022-12-18T13:09:24;-1.30;99.90
13742;DHT22;8461;52.356;10.704;2022-12-18T13:11:49;-1.30;99.90
13742;DHT22;8461;52.356;10.704;2022-12-18T13:14:36;-1.30;99.90
13742;DHT22;8461;52.356;10.704;2022-12-18T13:20:06;-1.40;99.90
13742;DHT22;8461;52.356;10.704;2022-12-18T13:22:49;-1.40;99.90
13742;DHT22;8461;52.356;10.704;2022-12-18T13:25:37;-1.50;99.90
13742;DHT22;8461;52.356;10.704;2022-12-18T13:28:07;-1.50;99.90
13742;DHT22;8461;52.356;10.704;2022-12-18T13:40:59;-1.60;99.90
13742;DHT22;8461;52.356;10.704;2022-12-18T13:43:29;-1.60;99.90
13742;DHT22;8461;52.356;10.704;2022-12-18T13:51:55;-1.80;99.90
13742;DHT22;8461;52.356;10.704;2022-12-18T13:56:50;-1.90;99.90
13742;DHT22;8461;52.356;10.704;2022-12-18T13:59:22;-1.90;99.90
13742;DHT22;8461;52.356;10.704;2022-12-18T14:01:57;-2.00;99.90
13742;DHT22;8461;52.356;10.704;2022-12-18T14:04:29;-2.00;99.90
13742;DHT22;8461;52.356;10.704;2022-12-18T14:07:07;-2.10;99.90
13742;DHT22;8461;52.356;10.704;2022-12-18T14:09:39;-2.20;99.90
13742;DHT22;8461;52.356;10.704;2022-12-18T14:12:05;-2.20;99.90
13742;DHT22;8461;52.356;10.704;2022-12-18T14:14:51;-2.20;99.90
13742;DHT22;8461;52.356;10.704;2022-12-18T14:17:18;-2.30;99.90
13742;DHT22;8461;52.356;10.704;2022-12-18T14:19:49;-2.30;99.90
13742;DHT22;8461;52.356;10.704;2022-12-18T14:22:24;-2.40;99.90
13742;DHT22;8461;52.356;10.704;2022-12-18T14:25:20;-2.50;99.90
13742;DHT22;8461;52.356;10.704;2022-12-18T14:27:50;-2.60;99.90
13742;DHT22;8461;52.356;10.704;2022-12-18T14:30:40;-2.60;99.90
13742;DHT22;8461;52.356;10.704;2022-12-18T14:33:09;-2.70;99.90
13742;DHT22;8461;52.356;10.704;2022-12-18T14:35:37;-2.80;99.90
13742;DHT22;8461;52.356;10.704;2022-12-18T14:40:36;-2.90;99.90
13742;DHT22;8461;52.356;10.704;2022-12-18T14:43:02;-2.90;99.90
13742;DHT22;8461;52.356;10.704;2022-12-18T14:45:47;-3.00;99.90
13742;DHT22;8461;52.356;10.704;2022-12-18T14:48:33;-3.00;99.90
13742;DHT22;8461;52.356;10.704;2022-12-18T14:51:00;-3.00;99.90
13742;DHT22;8461;52.356;10.704;2022-12-18T14:53:34;-3.10;99.90
13742;DHT22;8461;52.356;10.704;2022-12-18T14:56:01;-3.20;99.90
13742;DHT22;8461;52.356;10.704;2022-12-18T14:58:27;-3.20;99.90
13742;DHT22;8461;52.356;10.704;2022-12-18T15:00:53;-3.20;99.90
13742;DHT22;8461;52.356;10.704;2022-12-18T15:03:20;-3.20;99.90
13742;DHT22;8461;52.356;10.704;2022-12-18T15:05:47;-3.20;99.90
13742;DHT22;8461;52.356;10.704;2022-12-18T15:08:35;-3.30;99.90
13742;DHT22;8461;52.356;10.704;2022-12-18T15:11:02;-3.30;99.90
13742;DHT22;8461;52.356;10.704;2022-12-18T15:13:27;-3.30;99.90
13742;DHT22;8461;52.356;10.704;2022-12-18T15:15:56;-3.40;99.90
13742;DHT22;8461;52.356;10.704;2022-12-18T15:18:30;-3.40;99.90
13742;DHT22;8461;52.356;10.704;2022-12-18T15:20:59;-3.40;99.90
13742;DHT22;8461;52.356;10.704;2022-12-18T15:23:50;-3.20;99.90
13742;DHT22;8461;52.356;10.704;2022-12-18T15:26:18;-3.20;99.90
13742;DHT22;8461;52.356;10.704;2022-12-18T15:34:10;-3.20;99.90
13742;DHT22;8461;52.356;10.704;2022-12-18T15:36:37;-3.30;99.90
13742;DHT22;8461;52.356;10.704;2022-12-18T15:39:03;-3.30;99.90
13742;DHT22;8461;52.356;10.704;2022-12-18T15:41:31;-3.30;99.90
13742;DHT22;8461;52.356;10.704;2022-12-18T15:43:58;-3.30;99.90
13742;DHT22;8461;52.356;10.704;2022-12-18T15:46:24;-3.30;99.90
13742;DHT22;8461;52.356;10.704;2022-12-18T15:48:55;-3.30;99.90
13742;DHT22;8461;52.356;10.704;2022-12-18T15:51:25;-3.20;99.90
13742;DHT22;8461;52.356;10.704;2022-12-18T15:53:54;-3.10;99.90
13742;DHT22;8461;52.356;10.704;2022-12-18T15:56:20;-3.00;99.90
13742;DHT22;8461;52.356;10.704;2022-12-18T15:59:13;-3.00;99.90
13742;DHT22;8461;52.356;10.704;2022-12-18T16:01:39;-3.10;99.90
13742;DHT22;8461;52.356;10.704;2022-12-18T16:04:05;-3.10;99.90
13742;DHT22;8461;52.356;10.704;2022-12-18T16:06:30;-3.10;99.90
13742;DHT22;8461;52.356;10.704;2022-12-18T16:08:56;-3.00;99.90
13742;DHT22;8461;52.356;10.704;2022-12-18T16:11:25;-3.00;99.90
13742;DHT22;8461;52.356;10.704;2022-12-18T16:14:22;-3.00;99.90
13742;DHT22;8461;52.356;10.704;2022-12-18T16:16:51;-3.00;99.90
13742;DHT22;8461;52.356;10.704;2022-12-18T16:19:17;-3.00;99.90
13742;DHT22;8461;52.356;10.704;2022-12-18T16:21:43;-3.00;99.90
13742;DHT22;8461;52.356;10.704;2022-12-18T16:24:24;-3.10;99.90
13742;DHT22;8461;52.356;10.704;2022-12-18T16:26:50;-3.10;99.90
13742;DHT22;8461;52.356;10.704;2022-12-18T16:29:20;-3.10;99.90
13742;DHT22;8461;52.356;10.704;2022-12-18T16:31:50;-3.10;99.90
13742;DHT22;8461;52.356;10.704;2022-12-18T16:34:25;-3.10;99.90
13742;DHT22;8461;52.356;10.704;2022-12-18T16:36:55;-3.10;99.90
13742;DHT22;8461;52.356;10.704;2022-12-18T16:39:21;-3.10;99.90
13742;DHT22;8461;52.356;10.704;2022-12-18T16:41:47;-3.20;99.90
13742;DHT22;8461;52.356;10.704;2022-12-18T16:44:13;-3.20;99.90
13742;DHT22;8461;52.356;10.704;2022-12-18T16:46:39;-3.20;99.90
13742;DHT22;8461;52.356;10.704;2022-12-18T16:49:08;-3.20;99.90
13742;DHT22;8461;52.356;10.704;2022-12-18T16:51:34;-3.20;99.90
13742;DHT22;8461;52.356;10.704;2022-12-18T16:53:59;-3.20;99.90
13742;DHT22;8461;52.356;10.704;2022-12-18T16:56:25;-3.20;99.90
13742;DHT22;8461;52.356;10.704;2022-12-18T16:58:52;-3.20;99.90
13742;DHT22;8461;52.356;10.704;2022-12-18T17:01:18;-3.20;99.90
13742;DHT22;8461;52.356;10.704;2022-12-18T17:03:44;-3.20;99.90
13742;DHT22;8461;52.356;10.704;2022-12-18T17:06:09;-3.30;99.90
13742;DHT22;8461;52.356;10.704;2022-12-18T17:08:35;-3.20;99.90
13742;DHT22;8461;52.356;10.704;2022-12-18T17:11:06;-3.20;99.90